sensor_id;sensor_type;location;lat;lon;timestamp;P1;durP1;ratioP1;P2;durP2;ratioP2
71610;SDS011;59459;51.172;6.682;2023-04-03T00:00:41;12.13;;;5.67;;
71610;SDS011;59459;51.172;6.682;2023-04-03T00:03:07;10.03;;;5.20;;
71610;SDS011;59459;51.172;6.682;2023-04-03T00:05:32;11.63;;;5.17;;
71610;SDS011;59459;51.172;6.682;2023-04-03T00:07:57;10.47;;;5.20;;
71610;SDS011;59459;51.172;6.682;2023-04-03T00:10:23;11.33;;;4.93;;
71610;SDS011;59459;51.172;6.682;2023-04-03T00:12:48;13.33;;;5.67;;
71610;SDS011;59459;51.172;6.682;2023-04-03T00:15:13;11.23;;;5.53;;
71610;SDS011;59459;51.172;6.682;2023-04-03T00:17:38;11.20;;;5.43;;
71610;SDS011;59459;51.172;6.682;2023-04-03T00:20:04;11.83;;;5.83;;
71610;SDS011;59459;51.172;6.682;2023-04-03T00:22:29;10.70;;;5.45;;
71610;SDS011;59459;51.172;6.682;2023-04-03T00:24:55;10.93;;;5.60;;
71610;SDS011;59459;51.172;6.682;2023-04-03T00:27:20;12.63;;;5.47;;
71610;SDS011;59459;51.172;6.682;2023-04-03T00:29:45;12.00;;;5.30;;
71610;SDS011;59459;51.172;6.682;2023-04-03T00:32:10;12.30;;;5.63;;
71610;SDS011;59459;51.172;6.682;2023-04-03T00:34:36;10.37;;;5.63;;
71610;SDS011;59459;51.172;6.682;2023-04-03T00:37:01;13.57;;;5.63;;
71610;SDS011;59459;51.172;6.682;2023-04-03T00:39:26;13.30;;;5.60;;
71610;SDS011;59459;51.172;6.682;2023-04-03T00:41:51;12.30;;;5.77;;
71610;SDS011;59459;51.172;6.682;2023-04-03T00:44:20;14.37;;;5.47;;
71610;SDS011;59459;51.172;6.682;2023-04-03T00:46:46;12.20;;;5.65;;
71610;SDS011;59459;51.172;6.682;2023-04-03T00:49:11;11.83;;;5.80;;
71610;SDS011;59459;51.172;6.682;2023-04-03T00:51:36;11.87;;;6.57;;
71610;SDS011;59459;51.172;6.682;2023-04-03T00:54:02;11.73;;;5.77;;
71610;SDS011;59459;51.172;6.682;2023-04-03T00:56:29;11.02;;;6.07;;
71610;SDS011;59459;51.172;6.682;2023-04-03T00:58:57;12.63;;;5.78;;
71610;SDS011;59459;51.172;6.682;2023-04-03T01:01:25;13.02;;;6.05;;
71610;SDS011;59459;51.172;6.682;2023-04-03T01:03:51;10.50;;;5.50;;
71610;SDS011;59459;51.172;6.682;2023-04-03T01:06:16;13.95;;;6.05;;
71610;SDS011;59459;51.172;6.682;2023-04-03T01:08:42;14.47;;;6.10;;
71610;SDS011;59459;51.172;6.682;2023-04-03T01:11:07;12.45;;;5.85;;
71610;SDS011;59459;51.172;6.682;2023-04-03T01:13:33;12.00;;;5.37;;
71610;SDS011;59459;51.172;6.682;2023-04-03T01:16:02;10.30;;;5.40;;
71610;SDS011;59459;51.172;6.682;2023-04-03T01:18:28;11.73;;;5.88;;
71610;SDS011;59459;51.172;6.682;2023-04-03T01:23:53;11.80;;;5.20;;
71610;SDS011;59459;51.172;6.682;2023-04-03T01:26:10;10.18;;;5.15;;
71610;SDS011;59459;51.172;6.682;2023-04-03T01:28:36;14.20;;;5.82;;
71610;SDS011;59459;51.172;6.682;2023-04-03T01:33:30;13.55;;;6.30;;
71610;SDS011;59459;51.172;6.682;2023-04-03T01:35:55;11.57;;;5.80;;
71610;SDS011;59459;51.172;6.682;2023-04-03T01:38:20;10.70;;;5.97;;
71610;SDS011;59459;51.172;6.682;2023-04-03T01:40:45;11.87;;;5.60;;
71610;SDS011;59459;51.172;6.682;2023-04-03T01:43:11;13.90;;;5.67;;
71610;SDS011;59459;51.172;6.682;2023-04-03T01:45:36;11.43;;;6.03;;
71610;SDS011;59459;51.172;6.682;2023-04-03T01:48:01;14.90;;;6.13;;
71610;SDS011;59459;51.172;6.682;2023-04-03T01:50:26;11.87;;;5.40;;
71610;SDS011;59459;51.172;6.682;2023-04-03T01:52:52;10.70;;;5.27;;
71610;SDS011;59459;51.172;6.682;2023-04-03T01:55:17;10.87;;;5.63;;
71610;SDS011;59459;51.172;6.682;2023-04-03T01:57:42;14.50;;;6.07;;
71610;SDS011;59459;51.172;6.682;2023-04-03T02:00:07;12.93;;;6.13;;
71610;SDS011;59459;51.172;6.682;2023-04-03T02:02:33;11.53;;;6.13;;
71610;SDS011;59459;51.172;6.682;2023-04-03T02:04:58;14.17;;;5.87;;
71610;SDS011;59459;51.172;6.682;2023-04-03T02:07:23;13.30;;;6.90;;
71610;SDS011;59459;51.172;6.682;2023-04-03T02:09:48;11.80;;;6.00;;
71610;SDS011;59459;51.172;6.682;2023-04-03T02:12:13;11.87;;;5.50;;
71610;SDS011;59459;51.172;6.682;2023-04-03T02:14:39;10.73;;;5.53;;
71610;SDS011;59459;51.172;6.682;2023-04-03T02:17:04;13.97;;;6.43;;
71610;SDS011;59459;51.172;6.682;2023-04-03T02:19:33;11.35;;;5.53;;
71610;SDS011;59459;51.172;6.682;2023-04-03T02:21:58;14.47;;;6.77;;
71610;SDS011;59459;51.172;6.682;2023-04-03T02:24:23;13.23;;;5.63;;
71610;SDS011;59459;51.172;6.682;2023-04-03T02:26:49;11.27;;;5.73;;
71610;SDS011;59459;51.172;6.682;2023-04-03T02:29:14;12.20;;;5.17;;
71610;SDS011;59459;51.172;6.682;2023-04-03T02:31:39;14.07;;;5.07;;
71610;SDS011;59459;51.172;6.682;2023-04-03T02:34:05;11.87;;;5.33;;
71610;SDS011;59459;51.172;6.682;2023-04-03T02:36:30;12.13;;;5.53;;
71610;SDS011;59459;51.172;6.682;2023-04-03T02:38:56;12.87;;;5.73;;
71610;SDS011;59459;51.172;6.682;2023-04-03T02:41:21;13.00;;;6.00;;
71610;SDS011;59459;51.172;6.682;2023-04-03T02:43:46;10.93;;;5.23;;
71610;SDS011;59459;51.172;6.682;2023-04-03T02:46:11;13.63;;;6.20;;
71610;SDS011;59459;51.172;6.682;2023-04-03T02:48:39;11.05;;;4.95;;
71610;SDS011;59459;51.172;6.682;2023-04-03T02:51:04;12.27;;;5.83;;
71610;SDS011;59459;51.172;6.682;2023-04-03T02:53:29;10.07;;;5.03;;
71610;SDS011;59459;51.172;6.682;2023-04-03T02:55:54;10.67;;;5.07;;
71610;SDS011;59459;51.172;6.682;2023-04-03T02:58:20;11.70;;;5.27;;
71610;SDS011;59459;51.172;6.682;2023-04-03T03:00:45;14.60;;;5.83;;
71610;SDS011;59459;51.172;6.682;2023-04-03T03:03:10;11.93;;;5.60;;
71610;SDS011;59459;51.172;6.682;2023-04-03T03:05:35;10.77;;;4.80;;
71610;SDS011;59459;51.172;6.682;2023-04-03T03:08:01;12.10;;;5.30;;
71610;SDS011;59459;51.172;6.682;2023-04-03T03:10:26;9.80;;;4.93;;
71610;SDS011;59459;51.172;6.682;2023-04-03T03:12:51;10.30;;;5.47;;
71610;SDS011;59459;51.172;6.682;2023-04-03T03:15:17;12.67;;;5.40;;
71610;SDS011;59459;51.172;6.682;2023-04-03T03:17:44;11.02;;;4.53;;
71610;SDS011;59459;51.172;6.682;2023-04-03T03:20:09;14.93;;;4.93;;
71610;SDS011;59459;51.172;6.682;2023-04-03T03:22:35;13.57;;;5.03;;
71610;SDS011;59459;51.172;6.682;2023-04-03T03:25:01;8.90;;;4.10;;
71610;SDS011;59459;51.172;6.682;2023-04-03T03:27:27;13.60;;;4.75;;
71610;SDS011;59459;51.172;6.682;2023-04-03T03:29:52;10.10;;;3.97;;
71610;SDS011;59459;51.172;6.682;2023-04-03T03:32:17;11.07;;;4.87;;
71610;SDS011;59459;51.172;6.682;2023-04-03T03:34:43;12.23;;;4.77;;
71610;SDS011;59459;51.172;6.682;2023-04-03T03:37:08;13.47;;;5.30;;
71610;SDS011;59459;51.172;6.682;2023-04-03T03:39:33;11.17;;;4.90;;
71610;SDS011;59459;51.172;6.682;2023-04-03T03:41:58;13.23;;;4.63;;
71610;SDS011;59459;51.172;6.682;2023-04-03T03:44:23;12.03;;;4.83;;
71610;SDS011;59459;51.172;6.682;2023-04-03T03:46:49;8.60;;;4.20;;
71610;SDS011;59459;51.172;6.682;2023-04-03T03:49:14;11.77;;;4.80;;
71610;SDS011;59459;51.172;6.682;2023-04-03T03:51:39;9.80;;;4.33;;
71610;SDS011;59459;51.172;6.682;2023-04-03T03:54:05;10.80;;;4.20;;
71610;SDS011;59459;51.172;6.682;2023-04-03T03:56:31;10.43;;;4.13;;
71610;SDS011;59459;51.172;6.682;2023-04-03T03:58:56;12.03;;;3.73;;
71610;SDS011;59459;51.172;6.682;2023-04-03T04:01:22;11.80;;;4.10;;
71610;SDS011;59459;51.172;6.682;2023-04-03T04:03:47;9.40;;;3.80;;
71610;SDS011;59459;51.172;6.682;2023-04-03T04:06:12;10.57;;;3.77;;
71610;SDS011;59459;51.172;6.682;2023-04-03T04:08:37;8.53;;;3.40;;
71610;SDS011;59459;51.172;6.682;2023-04-03T04:11:03;8.60;;;3.23;;
71610;SDS011;59459;51.172;6.682;2023-04-03T04:13:28;12.00;;;3.83;;
71610;SDS011;59459;51.172;6.682;2023-04-03T04:15:53;9.27;;;3.80;;
71610;SDS011;59459;51.172;6.682;2023-04-03T04:18:18;11.80;;;4.10;;
71610;SDS011;59459;51.172;6.682;2023-04-03T04:20:45;8.98;;;3.63;;
71610;SDS011;59459;51.172;6.682;2023-04-03T04:23:10;10.25;;;3.45;;
71610;SDS011;59459;51.172;6.682;2023-04-03T04:25:36;8.83;;;3.30;;
71610;SDS011;59459;51.172;6.682;2023-04-03T04:28:01;11.27;;;3.77;;
71610;SDS011;59459;51.172;6.682;2023-04-03T04:30:26;7.00;;;3.47;;
71610;SDS011;59459;51.172;6.682;2023-04-03T04:32:52;8.97;;;3.40;;
71610;SDS011;59459;51.172;6.682;2023-04-03T04:35:17;9.70;;;3.50;;
71610;SDS011;59459;51.172;6.682;2023-04-03T04:37:42;9.07;;;3.40;;
71610;SDS011;59459;51.172;6.682;2023-04-03T04:40:08;9.40;;;3.50;;
71610;SDS011;59459;51.172;6.682;2023-04-03T04:42:34;8.10;;;3.50;;
71610;SDS011;59459;51.172;6.682;2023-04-03T04:44:59;11.47;;;3.37;;
71610;SDS011;59459;51.172;6.682;2023-04-03T04:47:24;10.50;;;3.80;;
71610;SDS011;59459;51.172;6.682;2023-04-03T04:49:49;8.70;;;2.87;;
71610;SDS011;59459;51.172;6.682;2023-04-03T04:52:15;8.87;;;3.60;;
71610;SDS011;59459;51.172;6.682;2023-04-03T04:54:40;8.90;;;3.10;;
71610;SDS011;59459;51.172;6.682;2023-04-03T04:57:05;7.20;;;3.03;;
71610;SDS011;59459;51.172;6.682;2023-04-03T04:59:30;7.17;;;2.80;;
71610;SDS011;59459;51.172;6.682;2023-04-03T05:01:56;8.90;;;3.50;;
71610;SDS011;59459;51.172;6.682;2023-04-03T05:04:21;8.53;;;3.83;;
71610;SDS011;59459;51.172;6.682;2023-04-03T05:06:46;10.40;;;3.33;;
71610;SDS011;59459;51.172;6.682;2023-04-03T05:09:12;8.90;;;3.30;;
71610;SDS011;59459;51.172;6.682;2023-04-03T05:11:37;11.30;;;3.40;;
71610;SDS011;59459;51.172;6.682;2023-04-03T05:14:02;9.23;;;3.47;;
71610;SDS011;59459;51.172;6.682;2023-04-03T05:16:30;9.17;;;3.40;;
71610;SDS011;59459;51.172;6.682;2023-04-03T05:18:55;8.43;;;3.15;;
71610;SDS011;59459;51.172;6.682;2023-04-03T05:21:21;9.83;;;3.90;;
71610;SDS011;59459;51.172;6.682;2023-04-03T05:23:48;9.73;;;3.63;;
71610;SDS011;59459;51.172;6.682;2023-04-03T05:26:13;6.00;;;2.80;;
71610;SDS011;59459;51.172;6.682;2023-04-03T05:28:38;6.70;;;2.47;;
71610;SDS011;59459;51.172;6.682;2023-04-03T05:31:03;8.60;;;3.13;;
71610;SDS011;59459;51.172;6.682;2023-04-03T05:33:29;6.80;;;2.55;;
71610;SDS011;59459;51.172;6.682;2023-04-03T05:35:54;9.57;;;3.60;;
71610;SDS011;59459;51.172;6.682;2023-04-03T05:38:20;9.33;;;3.57;;
71610;SDS011;59459;51.172;6.682;2023-04-03T05:40:45;7.30;;;3.07;;
71610;SDS011;59459;51.172;6.682;2023-04-03T05:43:10;9.30;;;3.53;;
71610;SDS011;59459;51.172;6.682;2023-04-03T05:45:35;8.67;;;3.80;;
71610;SDS011;59459;51.172;6.682;2023-04-03T05:48:01;8.83;;;3.47;;
71610;SDS011;59459;51.172;6.682;2023-04-03T05:50:26;11.87;;;3.10;;
71610;SDS011;59459;51.172;6.682;2023-04-03T05:52:52;11.37;;;3.23;;
71610;SDS011;59459;51.172;6.682;2023-04-03T05:55:17;10.05;;;3.25;;
71610;SDS011;59459;51.172;6.682;2023-04-03T05:57:43;10.93;;;3.43;;
71610;SDS011;59459;51.172;6.682;2023-04-03T06:00:08;9.87;;;3.30;;
71610;SDS011;59459;51.172;6.682;2023-04-03T06:02:34;11.00;;;3.17;;
71610;SDS011;59459;51.172;6.682;2023-04-03T06:05:00;10.85;;;3.08;;
71610;SDS011;59459;51.172;6.682;2023-04-03T06:07:26;8.73;;;3.00;;
71610;SDS011;59459;51.172;6.682;2023-04-03T06:09:53;8.80;;;3.10;;
71610;SDS011;59459;51.172;6.682;2023-04-03T06:12:19;10.07;;;3.08;;
71610;SDS011;59459;51.172;6.682;2023-04-03T06:14:44;12.30;;;3.47;;
71610;SDS011;59459;51.172;6.682;2023-04-03T06:17:10;9.93;;;3.10;;
71610;SDS011;59459;51.172;6.682;2023-04-03T06:19:37;7.18;;;2.42;;
71610;SDS011;59459;51.172;6.682;2023-04-03T06:22:02;6.63;;;2.63;;
71610;SDS011;59459;51.172;6.682;2023-04-03T06:24:28;8.47;;;2.30;;
71610;SDS011;59459;51.172;6.682;2023-04-03T06:26:53;9.63;;;2.20;;
71610;SDS011;59459;51.172;6.682;2023-04-03T06:29:19;6.70;;;2.57;;
71610;SDS011;59459;51.172;6.682;2023-04-03T06:31:44;8.23;;;2.43;;
71610;SDS011;59459;51.172;6.682;2023-04-03T06:34:10;9.63;;;2.83;;
71610;SDS011;59459;51.172;6.682;2023-04-03T06:36:36;8.20;;;2.45;;
71610;SDS011;59459;51.172;6.682;2023-04-03T06:39:02;8.63;;;3.00;;
71610;SDS011;59459;51.172;6.682;2023-04-03T06:41:28;11.73;;;3.08;;
71610;SDS011;59459;51.172;6.682;2023-04-03T06:43:53;6.00;;;2.77;;
71610;SDS011;59459;51.172;6.682;2023-04-03T06:46:21;7.03;;;2.45;;
71610;SDS011;59459;51.172;6.682;2023-04-03T06:48:47;5.80;;;2.10;;
71610;SDS011;59459;51.172;6.682;2023-04-03T06:51:23;10.47;;;2.77;;
71610;SDS011;59459;51.172;6.682;2023-04-03T06:53:50;9.52;;;3.60;;
71610;SDS011;59459;51.172;6.682;2023-04-03T06:56:16;7.68;;;2.47;;
71610;SDS011;59459;51.172;6.682;2023-04-03T06:58:42;7.80;;;2.43;;
71610;SDS011;59459;51.172;6.682;2023-04-03T07:01:08;8.90;;;2.20;;
71610;SDS011;59459;51.172;6.682;2023-04-03T07:03:34;7.88;;;2.47;;
71610;SDS011;59459;51.172;6.682;2023-04-03T07:06:00;7.78;;;2.67;;
71610;SDS011;59459;51.172;6.682;2023-04-03T07:08:25;8.43;;;2.40;;
71610;SDS011;59459;51.172;6.682;2023-04-03T07:10:51;7.07;;;1.90;;
71610;SDS011;59459;51.172;6.682;2023-04-03T07:13:16;6.87;;;2.07;;
71610;SDS011;59459;51.172;6.682;2023-04-03T07:15:41;7.10;;;1.43;;
71610;SDS011;59459;51.172;6.682;2023-04-03T07:18:06;8.93;;;2.23;;
71610;SDS011;59459;51.172;6.682;2023-04-03T07:20:32;6.90;;;2.17;;
71610;SDS011;59459;51.172;6.682;2023-04-03T07:22:57;6.40;;;1.53;;
71610;SDS011;59459;51.172;6.682;2023-04-03T07:25:22;6.73;;;1.50;;
71610;SDS011;59459;51.172;6.682;2023-04-03T07:27:47;11.03;;;2.20;;
71610;SDS011;59459;51.172;6.682;2023-04-03T07:30:14;6.88;;;2.28;;
71610;SDS011;59459;51.172;6.682;2023-04-03T07:32:39;8.00;;;2.20;;
71610;SDS011;59459;51.172;6.682;2023-04-03T07:35:05;5.68;;;1.73;;
71610;SDS011;59459;51.172;6.682;2023-04-03T07:37:30;5.97;;;1.70;;
71610;SDS011;59459;51.172;6.682;2023-04-03T07:39:57;4.93;;;1.95;;
71610;SDS011;59459;51.172;6.682;2023-04-03T07:42:24;6.28;;;1.45;;
71610;SDS011;59459;51.172;6.682;2023-04-03T07:44:49;7.47;;;1.53;;
71610;SDS011;59459;51.172;6.682;2023-04-03T07:47:14;6.67;;;1.50;;
71610;SDS011;59459;51.172;6.682;2023-04-03T07:49:41;5.55;;;1.30;;
71610;SDS011;59459;51.172;6.682;2023-04-03T07:55:04;7.80;;;1.50;;
71610;SDS011;59459;51.172;6.682;2023-04-03T07:57:53;6.85;;;1.13;;
71610;SDS011;59459;51.172;6.682;2023-04-03T08:00:23;6.78;;;1.33;;
71610;SDS011;59459;51.172;6.682;2023-04-03T08:02:49;4.73;;;0.90;;
71610;SDS011;59459;51.172;6.682;2023-04-03T08:05:30;5.68;;;1.45;;
71610;SDS011;59459;51.172;6.682;2023-04-03T08:08:29;5.70;;;1.10;;
71610;SDS011;59459;51.172;6.682;2023-04-03T08:10:58;5.25;;;1.15;;
71610;SDS011;59459;51.172;6.682;2023-04-03T08:13:31;4.65;;;1.10;;
71610;SDS011;59459;51.172;6.682;2023-04-03T08:16:17;3.33;;;1.20;;
71610;SDS011;59459;51.172;6.682;2023-04-03T08:18:55;4.72;;;1.30;;
71610;SDS011;59459;51.172;6.682;2023-04-03T08:21:58;7.43;;;1.45;;
71610;SDS011;59459;51.172;6.682;2023-04-03T08:24:25;5.05;;;0.85;;
71610;SDS011;59459;51.172;6.682;2023-04-03T08:26:51;5.13;;;0.90;;
71610;SDS011;59459;51.172;6.682;2023-04-03T08:29:16;4.63;;;1.00;;
71610;SDS011;59459;51.172;6.682;2023-04-03T08:31:42;6.97;;;0.90;;
71610;SDS011;59459;51.172;6.682;2023-04-03T08:34:08;4.03;;;1.10;;
71610;SDS011;59459;51.172;6.682;2023-04-03T08:36:33;3.93;;;0.83;;
71610;SDS011;59459;51.172;6.682;2023-04-03T08:38:58;3.65;;;0.65;;
71610;SDS011;59459;51.172;6.682;2023-04-03T08:46:39;2.57;;;0.77;;
71610;SDS011;59459;51.172;6.682;2023-04-03T08:49:07;3.45;;;0.90;;
71610;SDS011;59459;51.172;6.682;2023-04-03T08:51:35;4.28;;;0.70;;
71610;SDS011;59459;51.172;6.682;2023-04-03T08:54:04;2.92;;;0.75;;
71610;SDS011;59459;51.172;6.682;2023-04-03T08:56:33;5.00;;;0.95;;
71610;SDS011;59459;51.172;6.682;2023-04-03T08:58:59;2.30;;;0.73;;
71610;SDS011;59459;51.172;6.682;2023-04-03T09:01:35;7.85;;;0.90;;
71610;SDS011;59459;51.172;6.682;2023-04-03T09:04:02;2.53;;;0.60;;
71610;SDS011;59459;51.172;6.682;2023-04-03T09:06:31;4.65;;;1.33;;
71610;SDS011;59459;51.172;6.682;2023-04-03T09:16:35;2.43;;;0.80;;
71610;SDS011;59459;51.172;6.682;2023-04-03T09:21:36;1.83;;;0.47;;
71610;SDS011;59459;51.172;6.682;2023-04-03T09:24:04;2.47;;;0.70;;
71610;SDS011;59459;51.172;6.682;2023-04-03T09:30:01;4.90;;;0.90;;
71610;SDS011;59459;51.172;6.682;2023-04-03T09:32:48;5.15;;;0.88;;
71610;SDS011;59459;51.172;6.682;2023-04-03T09:38:17;2.97;;;0.80;;
71610;SDS011;59459;51.172;6.682;2023-04-03T09:40:47;3.22;;;1.10;;
71610;SDS011;59459;51.172;6.682;2023-04-03T09:43:32;3.55;;;0.73;;
71610;SDS011;59459;51.172;6.682;2023-04-03T09:46:21;3.67;;;1.02;;
71610;SDS011;59459;51.172;6.682;2023-04-03T09:49:02;4.57;;;1.00;;
71610;SDS011;59459;51.172;6.682;2023-04-03T10:15:10;3.92;;;1.10;;
71610;SDS011;59459;51.172;6.682;2023-04-03T10:43:00;6.03;;;1.20;;
71610;SDS011;59459;51.172;6.682;2023-04-03T11:01:31;2.72;;;0.77;;
71610;SDS011;59459;51.172;6.682;2023-04-03T11:04:05;2.53;;;0.90;;
71610;SDS011;59459;51.172;6.682;2023-04-03T11:10:02;3.38;;;1.00;;
71610;SDS011;59459;51.172;6.682;2023-04-03T11:31:47;3.40;;;0.90;;
71610;SDS011;59459;51.172;6.682;2023-04-03T11:34:40;5.97;;;1.10;;
71610;SDS011;59459;51.172;6.682;2023-04-03T11:37:21;4.07;;;2.13;;
71610;SDS011;59459;51.172;6.682;2023-04-03T11:40:00;4.15;;;2.67;;
71610;SDS011;59459;51.172;6.682;2023-04-03T11:45:15;3.70;;;2.70;;
71610;SDS011;59459;51.172;6.682;2023-04-03T11:47:45;3.20;;;2.90;;
71610;SDS011;59459;51.172;6.682;2023-04-03T11:52:56;5.13;;;2.40;;
71610;SDS011;59459;51.172;6.682;2023-04-03T12:13:35;3.53;;;2.03;;
71610;SDS011;59459;51.172;6.682;2023-04-03T12:16:02;3.53;;;2.03;;
71610;SDS011;59459;51.172;6.682;2023-04-03T12:18:40;2.70;;;1.83;;
71610;SDS011;59459;51.172;6.682;2023-04-03T12:21:06;2.90;;;2.20;;
71610;SDS011;59459;51.172;6.682;2023-04-03T12:23:34;9.00;;;2.37;;
71610;SDS011;59459;51.172;6.682;2023-04-03T12:26:03;4.72;;;2.60;;
71610;SDS011;59459;51.172;6.682;2023-04-03T12:28:31;6.25;;;2.13;;
71610;SDS011;59459;51.172;6.682;2023-04-03T12:31:01;4.47;;;2.23;;
71610;SDS011;59459;51.172;6.682;2023-04-03T12:34:15;2.75;;;1.63;;
71610;SDS011;59459;51.172;6.682;2023-04-03T12:36:18;3.05;;;1.60;;
71610;SDS011;59459;51.172;6.682;2023-04-03T12:44:20;4.80;;;1.70;;
71610;SDS011;59459;51.172;6.682;2023-04-03T12:46:49;2.33;;;1.20;;
71610;SDS011;59459;51.172;6.682;2023-04-03T12:49:33;4.43;;;1.83;;
71610;SDS011;59459;51.172;6.682;2023-04-03T12:52:00;2.53;;;1.30;;
71610;SDS011;59459;51.172;6.682;2023-04-03T12:54:32;2.92;;;1.42;;
71610;SDS011;59459;51.172;6.682;2023-04-03T12:59:54;4.10;;;1.27;;
71610;SDS011;59459;51.172;6.682;2023-04-03T13:04:45;2.53;;;0.80;;
71610;SDS011;59459;51.172;6.682;2023-04-03T13:07:21;3.10;;;1.10;;
71610;SDS011;59459;51.172;6.682;2023-04-03T13:09:54;2.17;;;1.10;;
71610;SDS011;59459;51.172;6.682;2023-04-03T13:12:20;3.00;;;0.88;;
71610;SDS011;59459;51.172;6.682;2023-04-03T13:14:55;3.90;;;1.40;;
71610;SDS011;59459;51.172;6.682;2023-04-03T13:17:21;2.40;;;0.90;;
71610;SDS011;59459;51.172;6.682;2023-04-03T13:19:47;2.57;;;0.90;;
71610;SDS011;59459;51.172;6.682;2023-04-03T13:24:57;2.83;;;0.80;;
71610;SDS011;59459;51.172;6.682;2023-04-03T13:27:23;3.92;;;0.85;;
71610;SDS011;59459;51.172;6.682;2023-04-03T13:29:52;2.83;;;0.70;;
71610;SDS011;59459;51.172;6.682;2023-04-03T13:32:19;3.42;;;0.90;;
71610;SDS011;59459;51.172;6.682;2023-04-03T13:34:45;2.93;;;0.70;;
71610;SDS011;59459;51.172;6.682;2023-04-03T13:42:34;2.22;;;0.70;;
71610;SDS011;59459;51.172;6.682;2023-04-03T13:47:39;4.53;;;0.80;;
71610;SDS011;59459;51.172;6.682;2023-04-03T13:52:46;4.30;;;1.10;;
71610;SDS011;59459;51.172;6.682;2023-04-03T13:58:21;4.45;;;1.10;;
71610;SDS011;59459;51.172;6.682;2023-04-03T14:03:11;2.17;;;0.80;;
71610;SDS011;59459;51.172;6.682;2023-04-03T14:05:37;2.47;;;0.80;;
71610;SDS011;59459;51.172;6.682;2023-04-03T14:08:02;2.80;;;0.80;;
71610;SDS011;59459;51.172;6.682;2023-04-03T14:10:27;4.03;;;1.23;;
71610;SDS011;59459;51.172;6.682;2023-04-03T14:12:52;2.80;;;0.67;;
71610;SDS011;59459;51.172;6.682;2023-04-03T14:15:20;3.73;;;0.70;;
71610;SDS011;59459;51.172;6.682;2023-04-03T14:17:47;4.27;;;0.70;;
71610;SDS011;59459;51.172;6.682;2023-04-03T14:20:20;4.27;;;0.80;;
71610;SDS011;59459;51.172;6.682;2023-04-03T14:22:46;3.20;;;1.00;;
71610;SDS011;59459;51.172;6.682;2023-04-03T14:25:12;3.13;;;0.82;;
71610;SDS011;59459;51.172;6.682;2023-04-03T14:27:41;4.03;;;0.97;;
71610;SDS011;59459;51.172;6.682;2023-04-03T14:30:08;3.08;;;1.20;;
71610;SDS011;59459;51.172;6.682;2023-04-03T14:32:34;3.40;;;0.90;;
71610;SDS011;59459;51.172;6.682;2023-04-03T14:34:59;2.30;;;0.77;;
71610;SDS011;59459;51.172;6.682;2023-04-03T14:37:27;4.53;;;1.00;;
71610;SDS011;59459;51.172;6.682;2023-04-03T14:39:53;3.83;;;1.00;;
71610;SDS011;59459;51.172;6.682;2023-04-03T14:42:23;3.13;;;0.82;;
71610;SDS011;59459;51.172;6.682;2023-04-03T14:44:48;3.53;;;0.90;;
71610;SDS011;59459;51.172;6.682;2023-04-03T14:47:15;3.95;;;1.02;;
71610;SDS011;59459;51.172;6.682;2023-04-03T14:49:41;6.07;;;0.95;;
71610;SDS011;59459;51.172;6.682;2023-04-03T14:52:09;1.83;;;0.80;;
71610;SDS011;59459;51.172;6.682;2023-04-03T14:54:40;5.77;;;0.67;;
71610;SDS011;59459;51.172;6.682;2023-04-03T14:57:08;3.97;;;1.07;;
71610;SDS011;59459;51.172;6.682;2023-04-03T14:59:34;3.85;;;0.77;;
71610;SDS011;59459;51.172;6.682;2023-04-03T15:01:59;2.97;;;1.07;;
71610;SDS011;59459;51.172;6.682;2023-04-03T15:04:24;2.88;;;0.85;;
71610;SDS011;59459;51.172;6.682;2023-04-03T15:06:50;3.30;;;0.90;;
71610;SDS011;59459;51.172;6.682;2023-04-03T15:09:26;2.75;;;1.05;;
71610;SDS011;59459;51.172;6.682;2023-04-03T15:11:52;3.50;;;0.80;;
71610;SDS011;59459;51.172;6.682;2023-04-03T15:14:18;3.83;;;1.10;;
71610;SDS011;59459;51.172;6.682;2023-04-03T15:16:43;3.87;;;1.07;;
71610;SDS011;59459;51.172;6.682;2023-04-03T15:19:09;2.78;;;0.82;;
71610;SDS011;59459;51.172;6.682;2023-04-03T15:21:35;4.25;;;1.10;;
71610;SDS011;59459;51.172;6.682;2023-04-03T15:24:00;3.53;;;0.80;;
71610;SDS011;59459;51.172;6.682;2023-04-03T15:26:25;3.43;;;1.10;;
71610;SDS011;59459;51.172;6.682;2023-04-03T15:28:50;3.13;;;0.73;;
71610;SDS011;59459;51.172;6.682;2023-04-03T15:31:16;3.63;;;0.70;;
71610;SDS011;59459;51.172;6.682;2023-04-03T15:33:41;4.33;;;1.10;;
71610;SDS011;59459;51.172;6.682;2023-04-03T15:36:06;2.40;;;0.70;;
71610;SDS011;59459;51.172;6.682;2023-04-03T15:38:32;4.07;;;0.90;;
71610;SDS011;59459;51.172;6.682;2023-04-03T15:40:57;1.83;;;0.80;;
71610;SDS011;59459;51.172;6.682;2023-04-03T15:43:22;4.30;;;1.00;;
71610;SDS011;59459;51.172;6.682;2023-04-03T15:45:47;3.40;;;0.70;;
71610;SDS011;59459;51.172;6.682;2023-04-03T15:48:13;5.37;;;0.83;;
71610;SDS011;59459;51.172;6.682;2023-04-03T15:50:38;2.77;;;0.73;;
71610;SDS011;59459;51.172;6.682;2023-04-03T15:53:04;3.60;;;1.30;;
71610;SDS011;59459;51.172;6.682;2023-04-03T15:55:30;3.27;;;0.63;;
71610;SDS011;59459;51.172;6.682;2023-04-03T15:57:56;4.72;;;1.10;;
71610;SDS011;59459;51.172;6.682;2023-04-03T16:00:21;4.22;;;1.00;;
71610;SDS011;59459;51.172;6.682;2023-04-03T16:02:47;4.03;;;0.80;;
71610;SDS011;59459;51.172;6.682;2023-04-03T16:05:13;4.95;;;1.05;;
71610;SDS011;59459;51.172;6.682;2023-04-03T16:07:40;4.30;;;0.82;;
71610;SDS011;59459;51.172;6.682;2023-04-03T16:10:08;3.07;;;0.77;;
71610;SDS011;59459;51.172;6.682;2023-04-03T16:12:34;4.72;;;1.05;;
71610;SDS011;59459;51.172;6.682;2023-04-03T16:14:59;2.93;;;0.60;;
71610;SDS011;59459;51.172;6.682;2023-04-03T16:17:26;6.87;;;0.90;;
71610;SDS011;59459;51.172;6.682;2023-04-03T16:19:51;3.88;;;0.80;;
71610;SDS011;59459;51.172;6.682;2023-04-03T16:22:16;3.27;;;0.80;;
71610;SDS011;59459;51.172;6.682;2023-04-03T16:24:42;2.60;;;0.73;;
71610;SDS011;59459;51.172;6.682;2023-04-03T16:27:07;3.60;;;0.90;;
71610;SDS011;59459;51.172;6.682;2023-04-03T16:29:32;3.27;;;0.70;;
71610;SDS011;59459;51.172;6.682;2023-04-03T16:31:57;5.67;;;0.73;;
71610;SDS011;59459;51.172;6.682;2023-04-03T16:34:23;4.17;;;0.80;;
71610;SDS011;59459;51.172;6.682;2023-04-03T16:36:50;2.88;;;1.00;;
71610;SDS011;59459;51.172;6.682;2023-04-03T16:39:17;3.45;;;1.00;;
71610;SDS011;59459;51.172;6.682;2023-04-03T16:41:42;2.80;;;0.80;;
71610;SDS011;59459;51.172;6.682;2023-04-03T16:44:07;4.90;;;0.90;;
71610;SDS011;59459;51.172;6.682;2023-04-03T16:46:32;3.33;;;0.70;;
71610;SDS011;59459;51.172;6.682;2023-04-03T16:48:58;5.23;;;1.20;;
71610;SDS011;59459;51.172;6.682;2023-04-03T16:51:23;3.03;;;0.80;;
71610;SDS011;59459;51.172;6.682;2023-04-03T16:53:48;3.50;;;0.77;;
71610;SDS011;59459;51.172;6.682;2023-04-03T16:56:13;4.10;;;0.77;;
71610;SDS011;59459;51.172;6.682;2023-04-03T16:58:39;4.90;;;0.80;;
71610;SDS011;59459;51.172;6.682;2023-04-03T17:01:11;2.60;;;0.90;;
71610;SDS011;59459;51.172;6.682;2023-04-03T17:03:37;6.18;;;1.10;;
71610;SDS011;59459;51.172;6.682;2023-04-03T17:06:02;3.47;;;1.00;;
71610;SDS011;59459;51.172;6.682;2023-04-03T17:08:27;2.73;;;0.70;;
71610;SDS011;59459;51.172;6.682;2023-04-03T17:10:53;3.87;;;0.73;;
71610;SDS011;59459;51.172;6.682;2023-04-03T17:13:19;6.28;;;1.27;;
71610;SDS011;59459;51.172;6.682;2023-04-03T17:15:45;4.97;;;1.40;;
71610;SDS011;59459;51.172;6.682;2023-04-03T17:18:10;3.83;;;0.90;;
71610;SDS011;59459;51.172;6.682;2023-04-03T17:20:35;3.60;;;1.00;;
71610;SDS011;59459;51.172;6.682;2023-04-03T17:23:02;4.82;;;0.80;;
71610;SDS011;59459;51.172;6.682;2023-04-03T17:25:28;2.80;;;0.90;;
71610;SDS011;59459;51.172;6.682;2023-04-03T17:27:53;4.63;;;0.90;;
71610;SDS011;59459;51.172;6.682;2023-04-03T17:30:18;5.47;;;1.00;;
71610;SDS011;59459;51.172;6.682;2023-04-03T17:32:43;2.77;;;0.90;;